sensor_id;sensor_type;location;lat;lon;timestamp;temperature;humidity
4406;DHT22;2216;53.806;11.598;2022-09-29T00:00:08;8.20;66.50
4406;DHT22;2216;53.806;11.598;2022-09-29T00:02:35;8.20;66.50
4406;DHT22;2216;53.806;11.598;2022-09-29T00:05:00;8.20;66.50
4406;DHT22;2216;53.806;11.598;2022-09-29T00:07:28;8.20;66.50
4406;DHT22;2216;53.806;11.598;2022-09-29T00:09:53;8.20;66.50
4406;DHT22;2216;53.806;11.598;2022-09-29T00:12:19;8.20;66.50
4406;DHT22;2216;53.806;11.598;2022-09-29T00:14:45;8.20;66.50
4406;DHT22;2216;53.806;11.598;2022-09-29T00:17:11;8.20;66.50
4406;DHT22;2216;53.806;11.598;2022-09-29T00:19:36;8.20;66.50
4406;DHT22;2216;53.806;11.598;2022-09-29T00:22:02;8.20;66.50
4406;DHT22;2216;53.806;11.598;2022-09-29T00:24:28;8.20;66.60
4406;DHT22;2216;53.806;11.598;2022-09-29T00:26:53;8.20;67.30
4406;DHT22;2216;53.806;11.598;2022-09-29T00:29:19;8.20;66.60
4406;DHT22;2216;53.806;11.598;2022-09-29T00:31:45;8.20;66.50
4406;DHT22;2216;53.806;11.598;2022-09-29T00:34:10;8.20;66.50
4406;DHT22;2216;53.806;11.598;2022-09-29T00:36:36;8.20;66.60
4406;DHT22;2216;53.806;11.598;2022-09-29T00:39:02;8.20;66.60
4406;DHT22;2216;53.806;11.598;2022-09-29T00:41:31;8.20;66.60
4406;DHT22;2216;53.806;11.598;2022-09-29T00:46:49;8.20;66.60
4406;DHT22;2216;53.806;11.598;2022-09-29T00:54:38;8.20;66.60
4406;DHT22;2216;53.806;11.598;2022-09-29T00:57:10;8.20;66.60
4406;DHT22;2216;53.806;11.598;2022-09-29T00:59:59;8.20;66.60
4406;DHT22;2216;53.806;11.598;2022-09-29T01:02:29;8.20;66.60
4406;DHT22;2216;53.806;11.598;2022-09-29T01:04:55;8.20;66.60
4406;DHT22;2216;53.806;11.598;2022-09-29T01:07:23;8.20;66.60
4406;DHT22;2216;53.806;11.598;2022-09-29T01:09:51;8.20;67.40
4406;DHT22;2216;53.806;11.598;2022-09-29T01:12:21;8.10;66.60
4406;DHT22;2216;53.806;11.598;2022-09-29T01:14:47;8.20;66.60
4406;DHT22;2216;53.806;11.598;2022-09-29T01:17:13;8.10;66.60
4406;DHT22;2216;53.806;11.598;2022-09-29T01:20:03;8.20;66.70
4406;DHT22;2216;53.806;11.598;2022-09-29T01:29:14;8.10;66.60
4406;DHT22;2216;53.806;11.598;2022-09-29T01:41:08;8.10;66.60
4406;DHT22;2216;53.806;11.598;2022-09-29T01:43:44;8.10;66.60
4406;DHT22;2216;53.806;11.598;2022-09-29T01:46:20;8.10;66.60
4406;DHT22;2216;53.806;11.598;2022-09-29T01:48:51;8.10;67.40
4406;DHT22;2216;53.806;11.598;2022-09-29T01:51:28;8.10;66.70
4406;DHT22;2216;53.806;11.598;2022-09-29T01:54:03;8.10;66.70
4406;DHT22;2216;53.806;11.598;2022-09-29T01:56:37;8.10;66.70
4406;DHT22;2216;53.806;11.598;2022-09-29T01:59:17;8.10;66.80
4406;DHT22;2216;53.806;11.598;2022-09-29T02:01:47;8.10;66.70
4406;DHT22;2216;53.806;11.598;2022-09-29T02:05:03;8.10;66.70
4406;DHT22;2216;53.806;11.598;2022-09-29T02:07:30;8.00;66.60
4406;DHT22;2216;53.806;11.598;2022-09-29T02:10:04;7.90;66.60
4406;DHT22;2216;53.806;11.598;2022-09-29T02:12:36;8.10;66.70
4406;DHT22;2216;53.806;11.598;2022-09-29T02:15:05;8.00;66.60
4406;DHT22;2216;53.806;11.598;2022-09-29T02:17:36;8.00;66.60
4406;DHT22;2216;53.806;11.598;2022-09-29T02:20:05;8.00;66.60
4406;DHT22;2216;53.806;11.598;2022-09-29T02:22:34;8.00;66.60
4406;DHT22;2216;53.806;11.598;2022-09-29T02:25:00;8.00;66.60
4406;DHT22;2216;53.806;11.598;2022-09-29T02:27:27;8.00;66.60
4406;DHT22;2216;53.806;11.598;2022-09-29T02:29:58;8.00;66.60
4406;DHT22;2216;53.806;11.598;2022-09-29T02:32:24;7.90;66.50
4406;DHT22;2216;53.806;11.598;2022-09-29T02:34:51;7.90;66.50
4406;DHT22;2216;53.806;11.598;2022-09-29T02:40:40;7.90;66.50
4406;DHT22;2216;53.806;11.598;2022-09-29T02:43:38;7.90;66.60
4406;DHT22;2216;53.806;11.598;2022-09-29T02:46:48;7.90;66.70
4406;DHT22;2216;53.806;11.598;2022-09-29T02:49:41;7.80;66.60
4406;DHT22;2216;53.806;11.598;2022-09-29T02:52:24;7.80;66.60
4406;DHT22;2216;53.806;11.598;2022-09-29T02:58:06;7.80;66.60
4406;DHT22;2216;53.806;11.598;2022-09-29T03:00:38;7.80;66.70
4406;DHT22;2216;53.806;11.598;2022-09-29T03:03:04;7.80;66.60
4406;DHT22;2216;53.806;11.598;2022-09-29T03:05:30;7.80;66.70
4406;DHT22;2216;53.806;11.598;2022-09-29T03:07:55;7.70;66.60
4406;DHT22;2216;53.806;11.598;2022-09-29T03:10:21;7.70;66.60
4406;DHT22;2216;53.806;11.598;2022-09-29T03:12:47;7.70;66.50
4406;DHT22;2216;53.806;11.598;2022-09-29T03:15:13;7.70;66.60
4406;DHT22;2216;53.806;11.598;2022-09-29T03:17:39;7.70;66.60
4406;DHT22;2216;53.806;11.598;2022-09-29T03:20:06;7.70;66.60
4406;DHT22;2216;53.806;11.598;2022-09-29T03:22:33;7.70;66.60
4406;DHT22;2216;53.806;11.598;2022-09-29T03:24:58;7.70;66.50
4406;DHT22;2216;53.806;11.598;2022-09-29T03:27:24;7.60;66.50
4406;DHT22;2216;53.806;11.598;2022-09-29T03:29:50;7.60;66.50
4406;DHT22;2216;53.806;11.598;2022-09-29T03:32:16;7.60;66.50
4406;DHT22;2216;53.806;11.598;2022-09-29T03:34:42;7.60;66.50
4406;DHT22;2216;53.806;11.598;2022-09-29T03:37:08;7.60;66.50
4406;DHT22;2216;53.806;11.598;2022-09-29T03:39:34;7.60;66.50
4406;DHT22;2216;53.806;11.598;2022-09-29T03:42:00;7.50;66.40
4406;DHT22;2216;53.806;11.598;2022-09-29T03:44:25;7.60;66.50
4406;DHT22;2216;53.806;11.598;2022-09-29T03:46:51;7.50;66.50
4406;DHT22;2216;53.806;11.598;2022-09-29T03:49:17;7.50;66.50
4406;DHT22;2216;53.806;11.598;2022-09-29T03:51:43;7.50;66.50
4406;DHT22;2216;53.806;11.598;2022-09-29T03:54:09;7.40;66.50
4406;DHT22;2216;53.806;11.598;2022-09-29T03:56:36;7.40;66.50
4406;DHT22;2216;53.806;11.598;2022-09-29T03:59:03;7.40;66.60
4406;DHT22;2216;53.806;11.598;2022-09-29T04:01:30;7.40;66.60
4406;DHT22;2216;53.806;11.598;2022-09-29T04:03:57;7.40;66.60
4406;DHT22;2216;53.806;11.598;2022-09-29T04:06:23;7.40;66.60
4406;DHT22;2216;53.806;11.598;2022-09-29T04:08:49;7.40;66.70
4406;DHT22;2216;53.806;11.598;2022-09-29T04:11:14;7.40;66.70
4406;DHT22;2216;53.806;11.598;2022-09-29T04:13:40;7.40;66.70
4406;DHT22;2216;53.806;11.598;2022-09-29T04:16:07;7.40;66.70
4406;DHT22;2216;53.806;11.598;2022-09-29T04:18:32;7.30;66.70
4406;DHT22;2216;53.806;11.598;2022-09-29T04:20:59;7.40;66.70
4406;DHT22;2216;53.806;11.598;2022-09-29T04:23:26;7.30;66.70
4406;DHT22;2216;53.806;11.598;2022-09-29T04:25:53;7.40;66.70
4406;DHT22;2216;53.806;11.598;2022-09-29T04:28:19;7.30;66.70
4406;DHT22;2216;53.806;11.598;2022-09-29T04:30:45;7.30;66.70
4406;DHT22;2216;53.806;11.598;2022-09-29T04:33:11;7.30;66.70
4406;DHT22;2216;53.806;11.598;2022-09-29T04:35:36;7.30;66.70
4406;DHT22;2216;53.806;11.598;2022-09-29T04:38:02;7.30;66.70
4406;DHT22;2216;53.806;11.598;2022-09-29T04:40:28;7.30;66.70
4406;DHT22;2216;53.806;11.598;2022-09-29T04:42:53;7.30;66.80
4406;DHT22;2216;53.806;11.598;2022-09-29T04:45:19;7.30;66.90
4406;DHT22;2216;53.806;11.598;2022-09-29T04:47:45;7.30;66.80
4406;DHT22;2216;53.806;11.598;2022-09-29T04:50:11;7.30;66.80
4406;DHT22;2216;53.806;11.598;2022-09-29T04:52:36;7.30;66.80
4406;DHT22;2216;53.806;11.598;2022-09-29T04:55:03;7.20;66.80
4406;DHT22;2216;53.806;11.598;2022-09-29T04:57:29;7.30;67.60
4406;DHT22;2216;53.806;11.598;2022-09-29T04:59:54;7.20;66.80
4406;DHT22;2216;53.806;11.598;2022-09-29T05:02:21;7.20;66.80
4406;DHT22;2216;53.806;11.598;2022-09-29T05:04:47;7.30;66.90
4406;DHT22;2216;53.806;11.598;2022-09-29T05:07:13;7.20;66.80
4406;DHT22;2216;53.806;11.598;2022-09-29T05:09:39;7.30;66.90
4406;DHT22;2216;53.806;11.598;2022-09-29T05:12:05;7.30;66.90
4406;DHT22;2216;53.806;11.598;2022-09-29T05:14:30;7.30;66.90
4406;DHT22;2216;53.806;11.598;2022-09-29T05:16:57;7.30;66.90
4406;DHT22;2216;53.806;11.598;2022-09-29T05:19:23;7.20;66.80
4406;DHT22;2216;53.806;11.598;2022-09-29T05:21:49;7.30;66.90
4406;DHT22;2216;53.806;11.598;2022-09-29T05:24:15;7.30;66.90
4406;DHT22;2216;53.806;11.598;2022-09-29T05:26:41;7.30;66.90
4406;DHT22;2216;53.806;11.598;2022-09-29T05:29:07;7.30;66.90
4406;DHT22;2216;53.806;11.598;2022-09-29T05:31:33;7.30;66.90
4406;DHT22;2216;53.806;11.598;2022-09-29T05:33:58;7.30;67.00
4406;DHT22;2216;53.806;11.598;2022-09-29T05:36:24;7.30;67.00
4406;DHT22;2216;53.806;11.598;2022-09-29T05:38:50;7.30;67.00
4406;DHT22;2216;53.806;11.598;2022-09-29T05:41:16;7.30;67.00
4406;DHT22;2216;53.806;11.598;2022-09-29T05:43:48;7.40;67.10
4406;DHT22;2216;53.806;11.598;2022-09-29T05:46:14;7.30;67.10
4406;DHT22;2216;53.806;11.598;2022-09-29T05:48:41;7.40;67.20
4406;DHT22;2216;53.806;11.598;2022-09-29T05:51:12;7.40;67.20
4406;DHT22;2216;53.806;11.598;2022-09-29T05:53:40;7.40;67.20
4406;DHT22;2216;53.806;11.598;2022-09-29T05:56:14;7.40;67.30
4406;DHT22;2216;53.806;11.598;2022-09-29T05:58:41;7.50;67.40
4406;DHT22;2216;53.806;11.598;2022-09-29T06:01:16;7.50;67.40
4406;DHT22;2216;53.806;11.598;2022-09-29T06:03:43;7.60;67.40
4406;DHT22;2216;53.806;11.598;2022-09-29T06:06:14;7.60;67.50
4406;DHT22;2216;53.806;11.598;2022-09-29T06:08:42;7.60;67.50
4406;DHT22;2216;53.806;11.598;2022-09-29T06:11:10;7.70;67.60
4406;DHT22;2216;53.806;11.598;2022-09-29T06:13:48;7.70;67.60
4406;DHT22;2216;53.806;11.598;2022-09-29T06:16:17;7.80;67.60
4406;DHT22;2216;53.806;11.598;2022-09-29T06:18:44;7.90;67.70
4406;DHT22;2216;53.806;11.598;2022-09-29T06:21:16;7.90;67.80
4406;DHT22;2216;53.806;11.598;2022-09-29T06:23:46;8.00;67.90
4406;DHT22;2216;53.806;11.598;2022-09-29T06:26:13;8.10;68.10
4406;DHT22;2216;53.806;11.598;2022-09-29T06:28:40;8.20;68.10
4406;DHT22;2216;53.806;11.598;2022-09-29T06:31:11;8.30;68.20
4406;DHT22;2216;53.806;11.598;2022-09-29T06:33:47;8.40;68.10
4406;DHT22;2216;53.806;11.598;2022-09-29T06:36:20;8.40;68.00
4406;DHT22;2216;53.806;11.598;2022-09-29T06:39:11;8.60;68.10
4406;DHT22;2216;53.806;11.598;2022-09-29T06:41:38;8.60;68.20
4406;DHT22;2216;53.806;11.598;2022-09-29T06:44:04;8.70;68.20
4406;DHT22;2216;53.806;11.598;2022-09-29T06:46:30;8.80;68.20
4406;DHT22;2216;53.806;11.598;2022-09-29T06:48:56;8.90;68.30
4406;DHT22;2216;53.806;11.598;2022-09-29T06:51:23;8.90;68.30
4406;DHT22;2216;53.806;11.598;2022-09-29T06:53:50;9.00;68.40
4406;DHT22;2216;53.806;11.598;2022-09-29T06:56:16;9.10;68.40
4406;DHT22;2216;53.806;11.598;2022-09-29T06:58:44;9.10;68.30
4406;DHT22;2216;53.806;11.598;2022-09-29T07:01:10;9.20;68.40
4406;DHT22;2216;53.806;11.598;2022-09-29T07:03:37;9.30;69.10
4406;DHT22;2216;53.806;11.598;2022-09-29T07:06:05;9.30;68.40
4406;DHT22;2216;53.806;11.598;2022-09-29T07:08:32;9.40;68.50
4406;DHT22;2216;53.806;11.598;2022-09-29T07:10:59;9.50;68.50
4406;DHT22;2216;53.806;11.598;2022-09-29T07:13:25;9.50;68.50
4406;DHT22;2216;53.806;11.598;2022-09-29T07:15:51;9.60;68.60
4406;DHT22;2216;53.806;11.598;2022-09-29T07:18:19;9.70;68.80
4406;DHT22;2216;53.806;11.598;2022-09-29T07:20:45;9.80;69.00
4406;DHT22;2216;53.806;11.598;2022-09-29T07:23:10;9.80;68.90
4406;DHT22;2216;53.806;11.598;2022-09-29T07:25:36;9.90;68.70
4406;DHT22;2216;53.806;11.598;2022-09-29T07:28:02;10.10;69.10
4406;DHT22;2216;53.806;11.598;2022-09-29T07:30:28;10.10;69.00
4406;DHT22;2216;53.806;11.598;2022-09-29T07:32:53;10.20;69.00
4406;DHT22;2216;53.806;11.598;2022-09-29T07:35:22;10.30;69.10
4406;DHT22;2216;53.806;11.598;2022-09-29T07:37:52;10.50;70.00
4406;DHT22;2216;53.806;11.598;2022-09-29T07:40:23;10.60;69.20
4406;DHT22;2216;53.806;11.598;2022-09-29T07:42:49;10.70;69.20
4406;DHT22;2216;53.806;11.598;2022-09-29T07:45:16;10.80;69.20
4406;DHT22;2216;53.806;11.598;2022-09-29T07:47:42;10.90;69.10
4406;DHT22;2216;53.806;11.598;2022-09-29T07:50:08;11.00;69.20
4406;DHT22;2216;53.806;11.598;2022-09-29T07:52:34;11.20;69.20
4406;DHT22;2216;53.806;11.598;2022-09-29T07:55:00;11.30;69.20
4406;DHT22;2216;53.806;11.598;2022-09-29T07:57:26;11.40;69.20
4406;DHT22;2216;53.806;11.598;2022-09-29T07:59:52;11.50;69.10
4406;DHT22;2216;53.806;11.598;2022-09-29T08:02:19;11.60;69.10
4406;DHT22;2216;53.806;11.598;2022-09-29T08:04:45;11.70;69.20
4406;DHT22;2216;53.806;11.598;2022-09-29T08:07:11;11.80;69.10
4406;DHT22;2216;53.806;11.598;2022-09-29T08:09:37;11.90;69.00
4406;DHT22;2216;53.806;11.598;2022-09-29T08:12:03;12.00;69.00
4406;DHT22;2216;53.806;11.598;2022-09-29T08:14:28;12.20;69.10
4406;DHT22;2216;53.806;11.598;2022-09-29T08:16:54;12.20;68.90
4406;DHT22;2216;53.806;11.598;2022-09-29T08:19:20;12.40;69.20
4406;DHT22;2216;53.806;11.598;2022-09-29T08:21:45;12.40;68.90
4406;DHT22;2216;53.806;11.598;2022-09-29T08:24:14;12.70;68.90
4406;DHT22;2216;53.806;11.598;2022-09-29T08:26:42;12.60;68.80
4406;DHT22;2216;53.806;11.598;2022-09-29T08:29:07;12.70;68.90
4406;DHT22;2216;53.806;11.598;2022-09-29T08:31:33;12.80;69.00
4406;DHT22;2216;53.806;11.598;2022-09-29T08:33:59;12.90;68.80
4406;DHT22;2216;53.806;11.598;2022-09-29T08:36:25;13.00;68.70
4406;DHT22;2216;53.806;11.598;2022-09-29T08:38:52;13.00;68.80
4406;DHT22;2216;53.806;11.598;2022-09-29T08:42:01;13.10;68.70
4406;DHT22;2216;53.806;11.598;2022-09-29T08:44:41;13.20;68.60
4406;DHT22;2216;53.806;11.598;2022-09-29T08:47:19;13.30;68.60
4406;DHT22;2216;53.806;11.598;2022-09-29T08:50:10;13.40;68.60
4406;DHT22;2216;53.806;11.598;2022-09-29T08:52:41;13.50;68.50
4406;DHT22;2216;53.806;11.598;2022-09-29T08:57:41;13.70;68.50
4406;DHT22;2216;53.806;11.598;2022-09-29T09:00:14;13.80;68.40
4406;DHT22;2216;53.806;11.598;2022-09-29T09:05:41;14.00;68.50
4406;DHT22;2216;53.806;11.598;2022-09-29T09:08:38;14.10;68.50
4406;DHT22;2216;53.806;11.598;2022-09-29T09:11:32;14.20;68.60
4406;DHT22;2216;53.806;11.598;2022-09-29T09:23:14;14.80;68.60
4406;DHT22;2216;53.806;11.598;2022-09-29T09:25:51;15.00;68.70
4406;DHT22;2216;53.806;11.598;2022-09-29T09:28:24;15.10;68.60
4406;DHT22;2216;53.806;11.598;2022-09-29T09:31:22;15.30;68.40
4406;DHT22;2216;53.806;11.598;2022-09-29T09:33:57;15.40;68.40
4406;DHT22;2216;53.806;11.598;2022-09-29T09:39:30;15.80;68.40
4406;DHT22;2216;53.806;11.598;2022-09-29T09:42:02;15.90;68.50
4406;DHT22;2216;53.806;11.598;2022-09-29T09:44:33;16.10;68.40
4406;DHT22;2216;53.806;11.598;2022-09-29T09:49:48;16.40;68.00
4406;DHT22;2216;53.806;11.598;2022-09-29T09:52:24;16.60;67.90
4406;DHT22;2216;53.806;11.598;2022-09-29T09:54:56;16.70;67.60
4406;DHT22;2216;53.806;11.598;2022-09-29T09:57:45;16.70;67.20
4406;DHT22;2216;53.806;11.598;2022-09-29T10:00:15;16.70;66.80
4406;DHT22;2216;53.806;11.598;2022-09-29T10:02:51;16.70;66.40
4406;DHT22;2216;53.806;11.598;2022-09-29T10:06:03;16.60;66.20
4406;DHT22;2216;53.806;11.598;2022-09-29T10:08:31;16.50;66.10
4406;DHT22;2216;53.806;11.598;2022-09-29T10:11:24;16.40;66.00
4406;DHT22;2216;53.806;11.598;2022-09-29T10:13:59;16.30;65.90
4406;DHT22;2216;53.806;11.598;2022-09-29T10:16:36;16.20;65.90
4406;DHT22;2216;53.806;11.598;2022-09-29T10:19:06;16.10;66.20
4406;DHT22;2216;53.806;11.598;2022-09-29T10:21:38;16.20;66.50
4406;DHT22;2216;53.806;11.598;2022-09-29T10:24:21;16.20;66.80
4406;DHT22;2216;53.806;11.598;2022-09-29T10:26:52;16.30;67.30
4406;DHT22;2216;53.806;11.598;2022-09-29T10:29:39;16.40;67.40
4406;DHT22;2216;53.806;11.598;2022-09-29T10:32:15;16.50;67.60
4406;DHT22;2216;53.806;11.598;2022-09-29T10:34:49;16.70;67.60
4406;DHT22;2216;53.806;11.598;2022-09-29T10:37:34;16.80;67.40
4406;DHT22;2216;53.806;11.598;2022-09-29T10:42:42;17.00;67.40
4406;DHT22;2216;53.806;11.598;2022-09-29T10:45:21;17.10;67.10
4406;DHT22;2216;53.806;11.598;2022-09-29T10:50:27;17.10;66.50
4406;DHT22;2216;53.806;11.598;2022-09-29T10:53:36;17.10;66.10
4406;DHT22;2216;53.806;11.598;2022-09-29T10:56:17;17.00;66.10
4406;DHT22;2216;53.806;11.598;2022-09-29T10:58:55;16.90;66.00
4406;DHT22;2216;53.806;11.598;2022-09-29T11:01:25;16.90;66.00
4406;DHT22;2216;53.806;11.598;2022-09-29T11:03:59;16.80;66.00
4406;DHT22;2216;53.806;11.598;2022-09-29T11:06:33;16.80;66.00
4406;DHT22;2216;53.806;11.598;2022-09-29T11:09:04;16.80;66.20
4406;DHT22;2216;53.806;11.598;2022-09-29T11:11:51;16.80;66.50
4406;DHT22;2216;53.806;11.598;2022-09-29T11:16:54;17.00;66.30
4406;DHT22;2216;53.806;11.598;2022-09-29T11:19:21;17.10;66.70
4406;DHT22;2216;53.806;11.598;2022-09-29T11:22:00;17.10;66.40
4406;DHT22;2216;53.806;11.598;2022-09-29T11:30:19;17.10;66.40
4406;DHT22;2216;53.806;11.598;2022-09-29T11:33:13;17.10;66.10
4406;DHT22;2216;53.806;11.598;2022-09-29T11:39:03;17.00;65.60
4406;DHT22;2216;53.806;11.598;2022-09-29T11:44:54;16.70;65.50
4406;DHT22;2216;53.806;11.598;2022-09-29T11:56:40;16.30;65.20
4406;DHT22;2216;53.806;11.598;2022-09-29T12:03:00;16.00;65.50
4406;DHT22;2216;53.806;11.598;2022-09-29T12:06:23;16.00;65.70
4406;DHT22;2216;53.806;11.598;2022-09-29T12:14:56;15.80;65.90
4406;DHT22;2216;53.806;11.598;2022-09-29T12:17:40;15.80;65.90
4406;DHT22;2216;53.806;11.598;2022-09-29T12:20:18;15.80;65.90
4406;DHT22;2216;53.806;11.598;2022-09-29T12:22:51;15.70;66.00
4406;DHT22;2216;53.806;11.598;2022-09-29T12:25:23;15.70;66.10
4406;DHT22;2216;53.806;11.598;2022-09-29T12:27:52;15.70;66.20
4406;DHT22;2216;53.806;11.598;2022-09-29T12:30:24;15.70;66.20
4406;DHT22;2216;53.806;11.598;2022-09-29T12:33:09;15.70;66.30
4406;DHT22;2216;53.806;11.598;2022-09-29T12:36:05;15.70;66.30
4406;DHT22;2216;53.806;11.598;2022-09-29T12:39:34;15.70;66.30
4406;DHT22;2216;53.806;11.598;2022-09-29T12:42:47;15.60;66.20
4406;DHT22;2216;53.806;11.598;2022-09-29T12:52:05;15.60;66.90
4406;DHT22;2216;53.806;11.598;2022-09-29T12:54:34;15.60;66.20
4406;DHT22;2216;53.806;11.598;2022-09-29T12:57:23;15.60;66.20
4406;DHT22;2216;53.806;11.598;2022-09-29T13:03:01;15.60;66.20
4406;DHT22;2216;53.806;11.598;2022-09-29T13:17:23;15.40;65.70
4406;DHT22;2216;53.806;11.598;2022-09-29T13:23:04;15.40;65.80
4406;DHT22;2216;53.806;11.598;2022-09-29T13:28:38;15.20;65.80
4406;DHT22;2216;53.806;11.598;2022-09-29T13:31:11;15.20;66.00
4406;DHT22;2216;53.806;11.598;2022-09-29T13:33:40;15.20;66.10
4406;DHT22;2216;53.806;11.598;2022-09-29T13:36:31;15.20;66.20
4406;DHT22;2216;53.806;11.598;2022-09-29T13:39:01;15.20;66.10
4406;DHT22;2216;53.806;11.598;2022-09-29T13:41:34;15.20;66.30
4406;DHT22;2216;53.806;11.598;2022-09-29T13:44:17;15.20;66.20
4406;DHT22;2216;53.806;11.598;2022-09-29T13:46:45;15.10;66.10
4406;DHT22;2216;53.806;11.598;2022-09-29T13:51:46;15.00;66.10
4406;DHT22;2216;53.806;11.598;2022-09-29T13:57:06;15.00;66.20
4406;DHT22;2216;53.806;11.598;2022-09-29T14:02:40;15.00;66.30
4406;DHT22;2216;53.806;11.598;2022-09-29T14:18:30;14.90;66.00
4406;DHT22;2216;53.806;11.598;2022-09-29T14:21:04;14.90;66.00
4406;DHT22;2216;53.806;11.598;2022-09-29T14:23:51;14.90;66.10
4406;DHT22;2216;53.806;11.598;2022-09-29T14:26:50;14.90;66.10
4406;DHT22;2216;53.806;11.598;2022-09-29T14:29:23;14.80;66.00
4406;DHT22;2216;53.806;11.598;2022-09-29T14:31:54;14.80;66.00
4406;DHT22;2216;53.806;11.598;2022-09-29T14:34:24;14.80;66.10
4406;DHT22;2216;53.806;11.598;2022-09-29T14:36:53;14.80;66.10
4406;DHT22;2216;53.806;11.598;2022-09-29T14:39:21;14.80;66.10
4406;DHT22;2216;53.806;11.598;2022-09-29T14:41:48;14.80;66.10
4406;DHT22;2216;53.806;11.598;2022-09-29T14:44:29;14.80;66.10
4406;DHT22;2216;53.806;11.598;2022-09-29T14:47:27;14.70;66.10
4406;DHT22;2216;53.806;11.598;2022-09-29T14:50:25;14.80;66.10
4406;DHT22;2216;53.806;11.598;2022-09-29T14:53:57;14.70;66.00
4406;DHT22;2216;53.806;11.598;2022-09-29T14:57:06;14.70;65.90
4406;DHT22;2216;53.806;11.598;2022-09-29T15:02:42;14.60;65.90
4406;DHT22;2216;53.806;11.598;2022-09-29T15:05:13;14.60;65.90
4406;DHT22;2216;53.806;11.598;2022-09-29T15:07:45;14.50;65.80
4406;DHT22;2216;53.806;11.598;2022-09-29T15:10:24;14.50;65.90
4406;DHT22;2216;53.806;11.598;2022-09-29T15:12:50;14.50;65.90
4406;DHT22;2216;53.806;11.598;2022-09-29T15:15:32;14.50;65.90
4406;DHT22;2216;53.806;11.598;2022-09-29T15:18:14;14.40;65.90
4406;DHT22;2216;53.806;11.598;2022-09-29T15:20:59;14.40;65.90
4406;DHT22;2216;53.806;11.598;2022-09-29T15:26:24;14.30;66.00
4406;DHT22;2216;53.806;11.598;2022-09-29T15:28:57;14.30;65.90
4406;DHT22;2216;53.806;11.598;2022-09-29T15:31:29;14.20;65.80
4406;DHT22;2216;53.806;11.598;2022-09-29T15:33:58;14.20;65.80
4406;DHT22;2216;53.806;11.598;2022-09-29T15:36:29;14.20;65.80
4406;DHT22;2216;53.806;11.598;2022-09-29T15:39:36;14.10;65.80
4406;DHT22;2216;53.806;11.598;2022-09-29T15:42:20;14.10;65.90
4406;DHT22;2216;53.806;11.598;2022-09-29T15:45:00;14.00;65.80
4406;DHT22;2216;53.806;11.598;2022-09-29T15:47:47;14.00;65.90
4406;DHT22;2216;53.806;11.598;2022-09-29T15:50:22;14.00;65.90
4406;DHT22;2216;53.806;11.598;2022-09-29T15:52:49;13.90;65.90
4406;DHT22;2216;53.806;11.598;2022-09-29T15:55:19;13.90;65.90
4406;DHT22;2216;53.806;11.598;2022-09-29T15:57:50;13.90;66.00
4406;DHT22;2216;53.806;11.598;2022-09-29T16:02:59;13.80;66.70
4406;DHT22;2216;53.806;11.598;2022-09-29T16:05:29;13.80;66.10
4406;DHT22;2216;53.806;11.598;2022-09-29T16:08:16;13.80;66.10
4406;DHT22;2216;53.806;11.598;2022-09-29T16:10:54;13.70;66.00
4406;DHT22;2216;53.806;11.598;2022-09-29T16:13:24;13.70;66.00
4406;DHT22;2216;53.806;11.598;2022-09-29T16:15:56;13.70;66.00
4406;DHT22;2216;53.806;11.598;2022-09-29T16:21:15;13.70;66.10
4406;DHT22;2216;53.806;11.598;2022-09-29T16:24:05;13.60;66.00
4406;DHT22;2216;53.806;11.598;2022-09-29T16:26:38;13.60;66.00
4406;DHT22;2216;53.806;11.598;2022-09-29T16:31:36;13.60;66.10
4406;DHT22;2216;53.806;11.598;2022-09-29T16:34:25;13.50;66.00
4406;DHT22;2216;53.806;11.598;2022-09-29T16:37:03;13.50;66.00
4406;DHT22;2216;53.806;11.598;2022-09-29T16:39:33;13.50;66.00
4406;DHT22;2216;53.806;11.598;2022-09-29T16:42:25;13.50;66.00
4406;DHT22;2216;53.806;11.598;2022-09-29T16:44:52;13.50;66.00
4406;DHT22;2216;53.806;11.598;2022-09-29T16:47:28;13.40;65.90
4406;DHT22;2216;53.806;11.598;2022-09-29T16:49:57;13.40;66.00
4406;DHT22;2216;53.806;11.598;2022-09-29T16:52:41;13.30;65.90
4406;DHT22;2216;53.806;11.598;2022-09-29T16:58:09;13.30;65.90
4406;DHT22;2216;53.806;11.598;2022-09-29T17:00:37;13.20;65.90
4406;DHT22;2216;53.806;11.598;2022-09-29T17:03:03;13.20;65.90
4406;DHT22;2216;53.806;11.598;2022-09-29T17:05:33;13.20;65.90
4406;DHT22;2216;53.806;11.598;2022-09-29T17:08:04;13.10;65.90
4406;DHT22;2216;53.806;11.598;2022-09-29T17:10:39;13.10;65.90
4406;DHT22;2216;53.806;11.598;2022-09-29T17:13:11;13.00;65.80
4406;DHT22;2216;53.806;11.598;2022-09-29T17:15:39;13.00;65.90
4406;DHT22;2216;53.806;11.598;2022-09-29T17:18:04;13.00;66.70
4406;DHT22;2216;53.806;11.598;2022-09-29T17:20:32;12.90;65.90
4406;DHT22;2216;53.806;11.598;2022-09-29T17:22:58;12.90;66.00
4406;DHT22;2216;53.806;11.598;2022-09-29T17:25:24;12.90;66.00
4406;DHT22;2216;53.806;11.598;2022-09-29T17:27:50;12.80;65.90
4406;DHT22;2216;53.806;11.598;2022-09-29T17:30:33;12.80;66.00
4406;DHT22;2216;53.806;11.598;2022-09-29T17:32:59;12.80;66.00
4406;DHT22;2216;53.806;11.598;2022-09-29T17:35:31;12.80;66.00
4406;DHT22;2216;53.806;11.598;2022-09-29T17:37:58;12.70;66.00
4406;DHT22;2216;53.806;11.598;2022-09-29T17:43:21;12.60;66.40
4406;DHT22;2216;53.806;11.598;2022-09-29T17:45:49;12.60;66.00
4406;DHT22;2216;53.806;11.598;2022-09-29T17:48:15;12.60;66.00
4406;DHT22;2216;53.806;11.598;2022-09-29T17:50:46;12.60;66.00
4406;DHT22;2216;53.806;11.598;2022-09-29T17:53:13;12.50;66.00
4406;DHT22;2216;53.806;11.598;2022-09-29T17:55:41;12.50;66.00
4406;DHT22;2216;53.806;11.598;2022-09-29T17:58:12;12.50;66.10
4406;DHT22;2216;53.806;11.598;2022-09-29T18:00:42;12.50;66.10
4406;DHT22;2216;53.806;11.598;2022-09-29T18:03:11;12.50;66.10
4406;DHT22;2216;53.806;11.598;2022-09-29T18:05:42;12.40;66.00
4406;DHT22;2216;53.806;11.598;2022-09-29T18:08:13;12.40;66.10
4406;DHT22;2216;53.806;11.598;2022-09-29T18:13:10;12.40;66.00
4406;DHT22;2216;53.806;11.598;2022-09-29T18:15:36;12.20;65.90
4406;DHT22;2216;53.806;11.598;2022-09-29T18:18:04;12.20;66.00
4406;DHT22;2216;53.806;11.598;2022-09-29T18:20:33;12.20;66.00
4406;DHT22;2216;53.806;11.598;2022-09-29T18:23:00;12.20;66.00
4406;DHT22;2216;53.806;11.598;2022-09-29T18:25:28;12.20;66.00
4406;DHT22;2216;53.806;11.598;2022-09-29T18:27:55;12.10;66.00
4406;DHT22;2216;53.806;11.598;2022-09-29T18:30:24;12.00;66.00
4406;DHT22;2216;53.806;11.598;2022-09-29T18:32:56;12.00;66.10
4406;DHT22;2216;53.806;11.598;2022-09-29T18:35:34;11.80;65.90
4406;DHT22;2216;53.806;11.598;2022-09-29T18:38:01;11.90;66.00
4406;DHT22;2216;53.806;11.598;2022-09-29T18:40:29;11.80;66.00
4406;DHT22;2216;53.806;11.598;2022-09-29T18:42:56;11.80;66.10
4406;DHT22;2216;53.806;11.598;2022-09-29T18:45:26;11.80;66.10
4406;DHT22;2216;53.806;11.598;2022-09-29T18:47:58;11.70;66.20
4406;DHT22;2216;53.806;11.598;2022-09-29T18:50:46;11.80;66.30
4406;DHT22;2216;53.806;11.598;2022-09-29T18:53:15;11.60;66.20
4406;DHT22;2216;53.806;11.598;2022-09-29T18:55:42;11.60;66.20
4406;DHT22;2216;53.806;11.598;2022-09-29T18:58:19;11.50;66.10
4406;DHT22;2216;53.806;11.598;2022-09-29T19:00:50;11.50;66.20
4406;DHT22;2216;53.806;11.598;2022-09-29T19:03:24;11.40;66.20
4406;DHT22;2216;53.806;11.598;2022-09-29T19:05:51;11.40;66.20